EDT,Max TemperatureF,Mean TemperatureF,Min TemperatureF,Max Dew PointF,MeanDew PointF,Min DewpointF,Max Humidity, Mean Humidity, Min Humidity, Max Sea Level PressureIn, Mean Sea Level PressureIn, Min Sea Level PressureIn, Max VisibilityMiles, Mean VisibilityMiles, Min VisibilityMiles, Max Wind SpeedMPH, Mean Wind SpeedMPH, Max Gust SpeedMPH,PrecipitationIn, CloudCover, Events, WindDirDegrees
2013-7-1,69,67,64,64,63,60,93,85,76,30.02,29.95,29.88,10,8,2,23,15,29,0.18,6,Rain,52
2013-7-2,73,67,61,64,61,59,97,83,68,30.07,30.03,29.98,10,10,6,18,8,22,0.01,6,Rain,48
2013-7-3,87,78,68,71,68,64,90,75,59,30.15,30.10,30.05,10,9,2,17,5,25,0.26,4,Rain,148
2013-7-4,82,76,70,70,68,66,97,82,67,30.19,30.15,30.11,10,8,1,15,6,21,0.53,5,Rain,189
2013-7-5,81,76,70,69,67,64,90,76,62,30.14,30.12,30.09,10,8,1,18,6,25,0.53,6,Rain,215
2013-7-6,82,76,70,71,68,66,90,78,65,30.16,30.11,30.03,10,10,2,14,5,28,0.13,3,Rain-Thunderstorm,183
2013-7-7,78,74,70,70,66,63,90,79,67,30.08,30.04,29.99,10,10,7,15,9,21,0.00,4,Rain-Thunderstorm,227
2013-7-8,82,75,68,68,66,63,90,74,58,30.09,30.06,30.01,10,10,3,17,6,23,0.05,5,Rain,233
2013-7-9,81,76,70,72,69,66,87,78,69,30.05,29.98,29.92,10,7,2,16,8,21,0.28,5,Rain-Thunderstorm,206
2013-7-10,88,79,70,74,69,64,87,75,63,29.91,29.85,29.74,10,9,2,31,11,44,0.29,5,Rain,219
2013-7-11,73,68,63,64,58,55,84,71,57,30.03,29.99,29.89,10,10,10,14,6,18,T,2,,323
2013-7-12,78,69,60,64,61,57,90,74,57,30.15,30.10,30.03,10,10,10,21,9,25,0.00,1,,51
2013-7-13,79,71,63,68,62,56,79,69,58,30.24,30.19,30.14,10,10,10,14,5,16,0.00,3,,50
2013-7-14,86,78,69,71,68,65,84,70,55,30.28,30.26,30.23,10,10,10,15,5,18,0.00,1,,80
2013-7-15,86,80,74,73,70,68,87,74,61,30.31,30.28,30.25,10,10,10,13,5,15,0.00,4,,225
2013-7-16,87,80,73,75,72,69,91,76,61,30.31,30.27,30.24,10,10,7,9,4,15,0.00,0,,270
2013-7-17,89,82,75,75,71,70,87,71,55,30.27,30.22,30.14,10,9,7,14,8,20,0.00,0,,230
2013-7-18,87,82,76,76,72,69,85,71,57,30.15,30.08,29.99,10,9,1,16,7,21,0.30,2,Rain-Thunderstorm,225
2013-7-19,92,82,72,74,70,64,74,63,52,29.98,29.88,29.75,10,10,8,17,12,24,0.06,1,,226
2013-7-20,80,74,68,72,67,64,90,77,64,29.91,29.83,29.73,10,8,2,24,8,29,0.94,5,Rain-Thunderstorm,223
2013-7-21,80,73,66,66,63,58,93,72,50,29.98,29.95,29.91,10,10,9,14,6,16,0.00,1,,54
2013-7-22,79,71,63,69,65,61,93,80,67,29.96,29.87,29.77,10,9,4,13,3,17,0.16,3,Rain,75
2013-7-23,81,74,66,70,65,55,93,76,58,29.80,29.73,29.65,10,7,0,18,6,25,0.95,5,Fog-Rain,231
2013-7-24,68,62,56,54,50,46,80,63,45,30.04,29.93,29.80,10,10,10,18,8,28,0.00,5,,4
2013-7-25,74,65,55,54,49,46,77,59,41,30.11,30.08,30.04,10,10,10,16,6,21,0.00,0,,60
2013-7-26,76,68,59,57,53,51,75,61,46,30.10,30.05,29.97,10,10,10,12,6,16,0.00,0,,69
2013-7-27,72,68,64,65,61,55,87,77,66,29.97,29.88,29.81,10,7,1,16,8,21,0.61,5,Rain,181
2013-7-28,70,66,62,63,55,47,93,69,44,30.00,29.90,29.82,10,9,2,16,8,22,0.32,6,Rain-Thunderstorm,220
2013-7-29,73,66,58,57,54,51,86,68,49,30.18,30.09,29.99,10,10,3,16,8,22,0.02,7,Rain,227
2013-7-30,73,66,58,59,55,53,84,69,53,30.24,30.20,30.16,10,10,10,10,5,15,0.00,2,,229
2013-7-31,80,70,60,62,58,53,78,66,54,30.16,30.06,29.90,10,10,10,15,5,20,0.00,3,,163